sensor_id;sensor_type;location;lat;lon;timestamp;pressure;altitude;pressure_sealevel;temperature;humidity
7940;BME280;4015;48.888;9.226;2023-05-19T00:01:05;158187.34;;;11.72;68.76
7940;BME280;4015;48.888;9.226;2023-05-19T00:03:32;158179.66;;;11.69;68.90
7940;BME280;4015;48.888;9.226;2023-05-19T00:06:00;158180.97;;;11.69;68.62
7940;BME280;4015;48.888;9.226;2023-05-19T00:08:29;158193.72;;;11.74;68.06
7940;BME280;4015;48.888;9.226;2023-05-19T00:10:56;158203.97;;;11.78;68.31
7940;BME280;4015;48.888;9.226;2023-05-19T00:13:22;158207.78;;;11.80;68.42
7940;BME280;4015;48.888;9.226;2023-05-19T00:15:48;158202.69;;;11.78;69.26
7940;BME280;4015;48.888;9.226;2023-05-19T00:18:13;158201.41;;;11.77;69.25
7940;BME280;4015;48.888;9.226;2023-05-19T00:20:41;158220.63;;;11.85;69.22
7940;BME280;4015;48.888;9.226;2023-05-19T00:23:06;158206.50;;;11.79;68.74
7940;BME280;4015;48.888;9.226;2023-05-19T00:25:32;158203.97;;;11.78;70.14
7940;BME280;4015;48.888;9.226;2023-05-19T00:27:57;158206.50;;;11.79;69.47
7940;BME280;4015;48.888;9.226;2023-05-19T00:30:23;158187.34;;;11.72;69.50
7940;BME280;4015;48.888;9.226;2023-05-19T00:32:48;158209.06;;;11.80;69.12
7940;BME280;4015;48.888;9.226;2023-05-19T00:35:14;158198.84;;;11.76;69.46
7940;BME280;4015;48.888;9.226;2023-05-19T00:37:40;158195.00;;;11.75;69.39
7940;BME280;4015;48.888;9.226;2023-05-19T00:40:06;158197.59;;;11.76;69.10
7940;BME280;4015;48.888;9.226;2023-05-19T00:42:32;158209.06;;;11.80;70.05
7940;BME280;4015;48.888;9.226;2023-05-19T00:44:57;158161.75;;;11.61;70.43
7940;BME280;4015;48.888;9.226;2023-05-19T00:47:23;158142.59;;;11.54;70.67
7940;BME280;4015;48.888;9.226;2023-05-19T00:49:48;158115.75;;;11.43;70.64
7940;BME280;4015;48.888;9.226;2023-05-19T00:52:14;158133.69;;;11.50;69.82
7940;BME280;4015;48.888;9.226;2023-05-19T00:54:39;158129.81;;;11.49;69.89
7940;BME280;4015;48.888;9.226;2023-05-19T00:57:05;158120.88;;;11.45;69.61
7940;BME280;4015;48.888;9.226;2023-05-19T00:59:30;158111.91;;;11.42;69.25
7940;BME280;4015;48.888;9.226;2023-05-19T01:01:56;158106.81;;;11.40;68.91
7940;BME280;4015;48.888;9.226;2023-05-19T01:04:21;158103.00;;;11.38;69.94
7940;BME280;4015;48.888;9.226;2023-05-19T01:06:49;158104.28;;;11.39;69.25
7940;BME280;4015;48.888;9.226;2023-05-19T01:09:20;158087.66;;;11.32;69.31
7940;BME280;4015;48.888;9.226;2023-05-19T01:11:46;158096.59;;;11.35;69.87
7940;BME280;4015;48.888;9.226;2023-05-19T01:14:11;158087.66;;;11.32;69.51
7940;BME280;4015;48.888;9.226;2023-05-19T01:16:44;158072.31;;;11.26;70.57
7940;BME280;4015;48.888;9.226;2023-05-19T01:25:06;158104.28;;;11.39;70.41
7940;BME280;4015;48.888;9.226;2023-05-19T01:30:39;158081.25;;;11.29;71.59
7940;BME280;4015;48.888;9.226;2023-05-19T01:33:10;158094.03;;;11.34;71.32
7940;BME280;4015;48.888;9.226;2023-05-19T01:35:37;158105.53;;;11.39;71.13
7940;BME280;4015;48.888;9.226;2023-05-19T01:38:07;158123.44;;;11.46;70.71
7940;BME280;4015;48.888;9.226;2023-05-19T01:40:34;158115.75;;;11.43;70.47
7940;BME280;4015;48.888;9.226;2023-05-19T01:43:00;158119.59;;;11.45;70.55
7940;BME280;4015;48.888;9.226;2023-05-19T01:45:30;158118.34;;;11.44;70.81
7940;BME280;4015;48.888;9.226;2023-05-19T01:47:58;158136.22;;;11.51;70.95
7940;BME280;4015;48.888;9.226;2023-05-19T01:50:23;158115.75;;;11.43;71.29
7940;BME280;4015;48.888;9.226;2023-05-19T01:52:49;158109.38;;;11.41;70.89
7940;BME280;4015;48.888;9.226;2023-05-19T01:55:15;158120.88;;;11.45;71.47
7940;BME280;4015;48.888;9.226;2023-05-19T01:58:10;158100.41;;;11.37;71.50
7940;BME280;4015;48.888;9.226;2023-05-19T02:00:52;158088.94;;;11.32;71.63
7940;BME280;4015;48.888;9.226;2023-05-19T02:08:44;158094.03;;;11.34;72.25
7940;BME280;4015;48.888;9.226;2023-05-19T02:11:20;158103.00;;;11.38;72.83
7940;BME280;4015;48.888;9.226;2023-05-19T02:13:49;158092.75;;;11.34;72.70
7940;BME280;4015;48.888;9.226;2023-05-19T02:16:16;158094.03;;;11.34;72.68
7940;BME280;4015;48.888;9.226;2023-05-19T02:18:41;158106.81;;;11.40;72.02
7940;BME280;4015;48.888;9.226;2023-05-19T02:21:10;158114.47;;;11.43;71.69
7940;BME280;4015;48.888;9.226;2023-05-19T02:23:38;158104.28;;;11.39;71.79
7940;BME280;4015;48.888;9.226;2023-05-19T02:26:04;158103.00;;;11.38;72.10
7940;BME280;4015;48.888;9.226;2023-05-19T02:28:30;158117.00;;;11.44;72.40
7940;BME280;4015;48.888;9.226;2023-05-19T02:30:55;158114.47;;;11.43;72.11
7940;BME280;4015;48.888;9.226;2023-05-19T02:33:20;158103.00;;;11.38;72.20
7940;BME280;4015;48.888;9.226;2023-05-19T02:35:48;158071.03;;;11.25;72.46
7940;BME280;4015;48.888;9.226;2023-05-19T02:38:14;158077.41;;;11.28;72.75
7940;BME280;4015;48.888;9.226;2023-05-19T02:40:39;158077.41;;;11.28;72.27
7940;BME280;4015;48.888;9.226;2023-05-19T02:43:05;158065.91;;;11.23;72.73
7940;BME280;4015;48.888;9.226;2023-05-19T02:45:30;158053.13;;;11.18;73.11
7940;BME280;4015;48.888;9.226;2023-05-19T02:47:55;158071.03;;;11.25;73.11
7940;BME280;4015;48.888;9.226;2023-05-19T02:50:21;158077.41;;;11.28;73.47
7940;BME280;4015;48.888;9.226;2023-05-19T02:52:46;158065.91;;;11.23;73.58
7940;BME280;4015;48.888;9.226;2023-05-19T02:55:12;158058.25;;;11.20;72.97
7940;BME280;4015;48.888;9.226;2023-05-19T02:57:41;158074.88;;;11.27;73.30
7940;BME280;4015;48.888;9.226;2023-05-19T03:00:07;158083.78;;;11.30;73.45
7940;BME280;4015;48.888;9.226;2023-05-19T03:02:33;158077.41;;;11.28;73.60
7940;BME280;4015;48.888;9.226;2023-05-19T03:04:59;158071.03;;;11.25;72.81
7940;BME280;4015;48.888;9.226;2023-05-19T03:07:25;158057.00;;;11.20;72.54
7940;BME280;4015;48.888;9.226;2023-05-19T03:09:51;158072.31;;;11.26;72.52
7940;BME280;4015;48.888;9.226;2023-05-19T03:12:17;158060.81;;;11.21;72.86
7940;BME280;4015;48.888;9.226;2023-05-19T03:14:42;158068.44;;;11.24;73.38
7940;BME280;4015;48.888;9.226;2023-05-19T03:17:07;158064.63;;;11.23;73.19
7940;BME280;4015;48.888;9.226;2023-05-19T03:19:34;158035.22;;;11.11;73.32
7940;BME280;4015;48.888;9.226;2023-05-19T03:21:59;158042.94;;;11.14;73.67
7940;BME280;4015;48.888;9.226;2023-05-19T03:24:25;158039.09;;;11.13;73.63
7940;BME280;4015;48.888;9.226;2023-05-19T03:26:50;158031.41;;;11.10;73.98
7940;BME280;4015;48.888;9.226;2023-05-19T03:29:15;158016.06;;;11.03;74.27
7940;BME280;4015;48.888;9.226;2023-05-19T03:31:41;158013.53;;;11.02;74.64
7940;BME280;4015;48.888;9.226;2023-05-19T03:34:06;158004.56;;;10.99;74.50
7940;BME280;4015;48.888;9.226;2023-05-19T03:36:32;158007.13;;;11.00;74.78
7940;BME280;4015;48.888;9.226;2023-05-19T03:39:07;157979.03;;;10.89;75.41
7940;BME280;4015;48.888;9.226;2023-05-19T03:41:33;157970.06;;;10.85;75.15
7940;BME280;4015;48.888;9.226;2023-05-19T03:43:58;157940.69;;;10.73;75.43
7940;BME280;4015;48.888;9.226;2023-05-19T03:46:24;157938.13;;;10.72;75.45
7940;BME280;4015;48.888;9.226;2023-05-19T03:48:49;157924.09;;;10.67;75.91
7940;BME280;4015;48.888;9.226;2023-05-19T03:51:14;157907.47;;;10.60;76.11
7940;BME280;4015;48.888;9.226;2023-05-19T03:53:40;157910.03;;;10.61;75.76
7940;BME280;4015;48.888;9.226;2023-05-19T03:56:05;157890.88;;;10.53;76.21
7940;BME280;4015;48.888;9.226;2023-05-19T03:58:32;157862.75;;;10.42;76.62
7940;BME280;4015;48.888;9.226;2023-05-19T04:00:57;157875.53;;;10.47;77.39
7940;BME280;4015;48.888;9.226;2023-05-19T04:03:22;157870.47;;;10.45;76.77
7940;BME280;4015;48.888;9.226;2023-05-19T04:05:50;157855.13;;;10.39;77.04
7940;BME280;4015;48.888;9.226;2023-05-19T04:08:15;157883.25;;;10.50;77.12
7940;BME280;4015;48.888;9.226;2023-05-19T04:10:41;157864.03;;;10.43;76.88
7940;BME280;4015;48.888;9.226;2023-05-19T04:13:06;157878.09;;;10.48;77.24
7940;BME280;4015;48.888;9.226;2023-05-19T04:15:31;157871.72;;;10.46;77.05
7940;BME280;4015;48.888;9.226;2023-05-19T04:17:57;157903.66;;;10.59;77.10
7940;BME280;4015;48.888;9.226;2023-05-19T04:20:22;157919.00;;;10.65;76.42
7940;BME280;4015;48.888;9.226;2023-05-19T04:22:47;157917.72;;;10.64;76.11
7940;BME280;4015;48.888;9.226;2023-05-19T04:25:13;157919.00;;;10.65;75.58
7940;BME280;4015;48.888;9.226;2023-05-19T04:27:38;157910.03;;;10.61;76.14
7940;BME280;4015;48.888;9.226;2023-05-19T04:30:04;157885.78;;;10.51;77.03
7940;BME280;4015;48.888;9.226;2023-05-19T04:32:29;157904.94;;;10.59;76.85
7940;BME280;4015;48.888;9.226;2023-05-19T04:34:56;157899.84;;;10.57;76.23
7940;BME280;4015;48.888;9.226;2023-05-19T04:37:23;157908.75;;;10.61;76.25
7940;BME280;4015;48.888;9.226;2023-05-19T04:39:49;157925.34;;;10.67;76.48
7940;BME280;4015;48.888;9.226;2023-05-19T04:42:16;157936.88;;;10.72;75.91
7940;BME280;4015;48.888;9.226;2023-05-19T04:44:43;157936.88;;;10.72;76.10
7940;BME280;4015;48.888;9.226;2023-05-19T04:47:09;157943.25;;;10.74;75.37
7940;BME280;4015;48.888;9.226;2023-05-19T04:49:34;157958.56;;;10.80;75.83
7940;BME280;4015;48.888;9.226;2023-05-19T04:52:07;157991.81;;;10.94;74.98
7940;BME280;4015;48.888;9.226;2023-05-19T04:54:35;158004.56;;;10.99;75.03
7940;BME280;4015;48.888;9.226;2023-05-19T04:57:01;158045.47;;;11.15;74.36
7940;BME280;4015;48.888;9.226;2023-05-19T04:59:26;158051.84;;;11.18;74.47
7940;BME280;4015;48.888;9.226;2023-05-19T05:01:51;158071.03;;;11.25;73.80
7940;BME280;4015;48.888;9.226;2023-05-19T05:04:17;158073.59;;;11.26;73.97
7940;BME280;4015;48.888;9.226;2023-05-19T05:06:42;158105.53;;;11.39;73.73
7940;BME280;4015;48.888;9.226;2023-05-19T05:09:13;158124.72;;;11.47;73.55
7940;BME280;4015;48.888;9.226;2023-05-19T05:11:39;158119.59;;;11.45;73.71
7940;BME280;4015;48.888;9.226;2023-05-19T05:14:05;158127.25;;;11.48;73.38
7940;BME280;4015;48.888;9.226;2023-05-19T05:16:31;158138.78;;;11.52;73.61
7940;BME280;4015;48.888;9.226;2023-05-19T05:18:57;158174.53;;;11.67;73.79
7940;BME280;4015;48.888;9.226;2023-05-19T05:21:23;158201.41;;;11.77;72.28
7940;BME280;4015;48.888;9.226;2023-05-19T05:23:50;158189.88;;;11.73;72.50
7940;BME280;4015;48.888;9.226;2023-05-19T05:26:17;158186.06;;;11.71;73.25
7940;BME280;4015;48.888;9.226;2023-05-19T05:28:43;158246.22;;;11.95;71.82
7940;BME280;4015;48.888;9.226;2023-05-19T05:31:09;158238.50;;;11.92;71.67
7940;BME280;4015;48.888;9.226;2023-05-19T05:33:34;158274.31;;;12.06;70.50
7940;BME280;4015;48.888;9.226;2023-05-19T05:35:59;158294.78;;;12.14;70.93
7940;BME280;4015;48.888;9.226;2023-05-19T05:38:25;158334.41;;;12.30;70.89
7940;BME280;4015;48.888;9.226;2023-05-19T05:40:50;158376.63;;;12.47;69.96
7940;BME280;4015;48.888;9.226;2023-05-19T05:43:15;158354.91;;;12.38;70.30
7940;BME280;4015;48.888;9.226;2023-05-19T05:45:41;158390.69;;;12.53;70.34
7940;BME280;4015;48.888;9.226;2023-05-19T05:48:06;158400.91;;;12.57;69.54
7940;BME280;4015;48.888;9.226;2023-05-19T05:50:32;158480.19;;;12.88;69.81
7940;BME280;4015;48.888;9.226;2023-05-19T05:52:59;158445.66;;;12.75;70.11
7940;BME280;4015;48.888;9.226;2023-05-19T05:55:25;158480.19;;;12.88;70.12
7940;BME280;4015;48.888;9.226;2023-05-19T05:57:51;158533.97;;;13.10;69.54
7940;BME280;4015;48.888;9.226;2023-05-19T06:00:17;158594.16;;;13.34;68.01
7940;BME280;4015;48.888;9.226;2023-05-19T06:02:49;158624.88;;;13.46;68.44
7940;BME280;4015;48.888;9.226;2023-05-19T06:05:15;158678.59;;;13.67;67.00
7940;BME280;4015;48.888;9.226;2023-05-19T06:07:41;158749.03;;;13.95;68.07
7940;BME280;4015;48.888;9.226;2023-05-19T06:10:07;158768.22;;;14.03;66.04
7940;BME280;4015;48.888;9.226;2023-05-19T06:12:34;158750.31;;;13.96;67.36
7940;BME280;4015;48.888;9.226;2023-05-19T06:15:01;158723.41;;;13.85;68.29
7940;BME280;4015;48.888;9.226;2023-05-19T06:17:27;158693.97;;;13.73;67.50
7940;BME280;4015;48.888;9.226;2023-05-19T06:19:53;158642.78;;;13.53;67.85
7940;BME280;4015;48.888;9.226;2023-05-19T06:22:18;158714.41;;;13.82;68.43
7940;BME280;4015;48.888;9.226;2023-05-19T06:24:43;158819.41;;;14.23;66.92
7940;BME280;4015;48.888;9.226;2023-05-19T06:27:09;158912.94;;;14.61;66.71
7940;BME280;4015;48.888;9.226;2023-05-19T06:29:34;158935.97;;;14.70;66.54
7940;BME280;4015;48.888;9.226;2023-05-19T06:32:00;158966.69;;;14.82;65.47
7940;BME280;4015;48.888;9.226;2023-05-19T06:34:25;159000.00;;;14.95;64.92
7940;BME280;4015;48.888;9.226;2023-05-19T06:36:50;158975.69;;;14.86;64.66
7940;BME280;4015;48.888;9.226;2023-05-19T06:39:16;159009.00;;;14.99;64.80
7940;BME280;4015;48.888;9.226;2023-05-19T06:41:41;159076.88;;;15.26;64.86
7940;BME280;4015;48.888;9.226;2023-05-19T06:44:06;159157.56;;;15.58;63.14
7940;BME280;4015;48.888;9.226;2023-05-19T06:46:33;159080.75;;;15.27;64.04
7940;BME280;4015;48.888;9.226;2023-05-19T06:48:58;159050.00;;;15.15;62.31
7940;BME280;4015;48.888;9.226;2023-05-19T06:51:24;159078.13;;;15.26;64.29
7940;BME280;4015;48.888;9.226;2023-05-19T06:53:49;159167.88;;;15.62;63.88
7940;BME280;4015;48.888;9.226;2023-05-19T06:56:15;159155.03;;;15.57;63.22
7940;BME280;4015;48.888;9.226;2023-05-19T06:58:40;159207.63;;;15.78;61.51
7940;BME280;4015;48.888;9.226;2023-05-19T07:01:06;159287.09;;;16.09;62.43
7940;BME280;4015;48.888;9.226;2023-05-19T07:03:32;159384.50;;;16.48;60.74
7940;BME280;4015;48.888;9.226;2023-05-19T07:05:57;159453.78;;;16.76;60.75
7940;BME280;4015;48.888;9.226;2023-05-19T07:08:23;159580.72;;;17.26;57.46
7940;BME280;4015;48.888;9.226;2023-05-19T07:10:48;159506.31;;;16.96;57.21
7940;BME280;4015;48.888;9.226;2023-05-19T07:13:13;159575.59;;;17.24;58.38
7940;BME280;4015;48.888;9.226;2023-05-19T07:15:39;159426.78;;;16.65;58.67
7940;BME280;4015;48.888;9.226;2023-05-19T07:18:04;159467.88;;;16.81;57.95
7940;BME280;4015;48.888;9.226;2023-05-19T07:20:29;159452.50;;;16.75;59.82
7940;BME280;4015;48.888;9.226;2023-05-19T07:22:55;159428.06;;;16.65;60.74
7940;BME280;4015;48.888;9.226;2023-05-19T07:25:20;159311.41;;;16.19;60.12
7940;BME280;4015;48.888;9.226;2023-05-19T07:27:45;159239.66;;;15.90;60.94
7940;BME280;4015;48.888;9.226;2023-05-19T07:30:11;159244.78;;;15.93;60.69
7940;BME280;4015;48.888;9.226;2023-05-19T07:32:36;159179.44;;;15.67;62.84
7940;BME280;4015;48.888;9.226;2023-05-19T07:35:02;159192.25;;;15.72;61.08
7940;BME280;4015;48.888;9.226;2023-05-19T07:37:27;159166.56;;;15.61;62.51
7940;BME280;4015;48.888;9.226;2023-05-19T07:39:53;159102.50;;;15.36;62.45
7940;BME280;4015;48.888;9.226;2023-05-19T07:42:18;159165.28;;;15.61;62.99
7940;BME280;4015;48.888;9.226;2023-05-19T07:44:43;159198.66;;;15.74;60.99
7940;BME280;4015;48.888;9.226;2023-05-19T07:47:09;159239.66;;;15.90;61.04
7940;BME280;4015;48.888;9.226;2023-05-19T07:49:34;159271.72;;;16.03;60.70
7940;BME280;4015;48.888;9.226;2023-05-19T07:51:59;159238.34;;;15.90;61.14
7940;BME280;4015;48.888;9.226;2023-05-19T07:54:25;159269.09;;;16.02;60.53
7940;BME280;4015;48.888;9.226;2023-05-19T07:56:50;159243.50;;;15.92;61.04
7940;BME280;4015;48.888;9.226;2023-05-19T07:59:16;159262.72;;;16.00;62.26
7940;BME280;4015;48.888;9.226;2023-05-19T08:01:41;159379.34;;;16.46;58.83
7940;BME280;4015;48.888;9.226;2023-05-19T08:04:07;159351.19;;;16.35;58.67
7940;BME280;4015;48.888;9.226;2023-05-19T08:06:32;159374.22;;;16.44;60.98
7940;BME280;4015;48.888;9.226;2023-05-19T08:08:57;159312.69;;;16.19;59.38
7940;BME280;4015;48.888;9.226;2023-05-19T08:11:23;159289.66;;;16.10;59.49
7940;BME280;4015;48.888;9.226;2023-05-19T08:13:48;159284.50;;;16.08;59.69
7940;BME280;4015;48.888;9.226;2023-05-19T08:16:14;159287.09;;;16.09;60.46
7940;BME280;4015;48.888;9.226;2023-05-19T08:18:39;159187.09;;;15.70;61.33
7940;BME280;4015;48.888;9.226;2023-05-19T08:21:05;159215.31;;;15.81;62.14
7940;BME280;4015;48.888;9.226;2023-05-19T08:23:30;159179.44;;;15.67;61.91
7940;BME280;4015;48.888;9.226;2023-05-19T08:25:56;159111.44;;;15.39;62.09
7940;BME280;4015;48.888;9.226;2023-05-19T08:28:21;159115.31;;;15.41;62.02
7940;BME280;4015;48.888;9.226;2023-05-19T08:30:46;159130.69;;;15.47;62.38
7940;BME280;4015;48.888;9.226;2023-05-19T08:33:12;159064.03;;;15.21;62.56
7940;BME280;4015;48.888;9.226;2023-05-19T08:35:37;159075.59;;;15.25;63.41
7940;BME280;4015;48.888;9.226;2023-05-19T08:38:02;159114.03;;;15.41;62.52
7940;BME280;4015;48.888;9.226;2023-05-19T08:40:28;159124.25;;;15.45;62.02
7940;BME280;4015;48.888;9.226;2023-05-19T08:42:55;159180.72;;;15.67;62.43
7940;BME280;4015;48.888;9.226;2023-05-19T08:45:20;159175.59;;;15.65;61.27
7940;BME280;4015;48.888;9.226;2023-05-19T08:47:46;159135.81;;;15.49;60.55
7940;BME280;4015;48.888;9.226;2023-05-19T08:50:20;159076.88;;;15.26;61.52
7940;BME280;4015;48.888;9.226;2023-05-19T08:52:51;159062.75;;;15.20;62.62
7940;BME280;4015;48.888;9.226;2023-05-19T08:57:52;159069.19;;;15.23;63.11
7940;BME280;4015;48.888;9.226;2023-05-19T09:00:18;159062.75;;;15.20;62.06
7940;BME280;4015;48.888;9.226;2023-05-19T09:02:47;159074.31;;;15.25;63.82
7940;BME280;4015;48.888;9.226;2023-05-19T09:05:14;159052.53;;;15.16;63.32
7940;BME280;4015;48.888;9.226;2023-05-19T09:07:42;159071.75;;;15.24;64.22
7940;BME280;4015;48.888;9.226;2023-05-19T09:10:08;159055.09;;;15.17;62.59
7940;BME280;4015;48.888;9.226;2023-05-19T09:12:33;159079.41;;;15.27;61.89
7940;BME280;4015;48.888;9.226;2023-05-19T09:14:59;159153.75;;;15.56;62.51
7940;BME280;4015;48.888;9.226;2023-05-19T09:17:25;159143.47;;;15.52;62.59
7940;BME280;4015;48.888;9.226;2023-05-19T09:19:50;159207.63;;;15.78;62.12
7940;BME280;4015;48.888;9.226;2023-05-19T09:22:15;159148.63;;;15.54;61.26
7940;BME280;4015;48.888;9.226;2023-05-19T09:24:44;159174.28;;;15.64;61.35
7940;BME280;4015;48.888;9.226;2023-05-19T09:27:14;159167.88;;;15.62;60.86
7940;BME280;4015;48.888;9.226;2023-05-19T09:29:40;159126.81;;;15.46;62.11
7940;BME280;4015;48.888;9.226;2023-05-19T09:32:05;159202.47;;;15.76;61.63
7940;BME280;4015;48.888;9.226;2023-05-19T09:34:31;159237.06;;;15.89;63.08
7940;BME280;4015;48.888;9.226;2023-05-19T09:36:57;159211.47;;;15.79;62.36
7940;BME280;4015;48.888;9.226;2023-05-19T09:39:24;159274.25;;;16.04;63.11
7940;BME280;4015;48.888;9.226;2023-05-19T09:41:53;159302.47;;;16.15;62.00
7940;BME280;4015;48.888;9.226;2023-05-19T09:46:51;159298.59;;;16.14;62.93
7940;BME280;4015;48.888;9.226;2023-05-19T09:49:21;159299.88;;;16.14;62.45
7940;BME280;4015;48.888;9.226;2023-05-19T09:51:53;159313.97;;;16.20;61.45
7940;BME280;4015;48.888;9.226;2023-05-19T09:54:20;159331.91;;;16.27;61.55
7940;BME280;4015;48.888;9.226;2023-05-19T09:56:50;159367.84;;;16.41;58.76
7940;BME280;4015;48.888;9.226;2023-05-19T09:59:17;159397.34;;;16.53;59.49
7940;BME280;4015;48.888;9.226;2023-05-19T10:01:44;159402.44;;;16.55;59.03
7940;BME280;4015;48.888;9.226;2023-05-19T10:04:12;159475.56;;;16.84;61.19
7940;BME280;4015;48.888;9.226;2023-05-19T10:06:38;159496.09;;;16.92;60.60
7940;BME280;4015;48.888;9.226;2023-05-19T10:09:04;159469.16;;;16.82;59.88
7940;BME280;4015;48.888;9.226;2023-05-19T10:11:30;159462.75;;;16.79;59.55
7940;BME280;4015;48.888;9.226;2023-05-19T10:13:56;159460.16;;;16.78;60.99
7940;BME280;4015;48.888;9.226;2023-05-19T10:16:25;159474.28;;;16.84;61.38
7940;BME280;4015;48.888;9.226;2023-05-19T10:18:51;159392.19;;;16.51;62.30
7940;BME280;4015;48.888;9.226;2023-05-19T10:21:19;159405.00;;;16.56;62.05
7940;BME280;4015;48.888;9.226;2023-05-19T10:23:44;159440.94;;;16.70;61.53
7940;BME280;4015;48.888;9.226;2023-05-19T10:26:10;159407.56;;;16.57;61.42
7940;BME280;4015;48.888;9.226;2023-05-19T10:28:38;159430.66;;;16.66;59.77
7940;BME280;4015;48.888;9.226;2023-05-19T10:31:07;159378.06;;;16.45;60.59
7940;BME280;4015;48.888;9.226;2023-05-19T10:37:15;159306.31;;;16.17;63.24
7940;BME280;4015;48.888;9.226;2023-05-19T10:39:24;159417.84;;;16.61;62.01
7940;BME280;4015;48.888;9.226;2023-05-19T10:44:33;159425.50;;;16.64;61.72
7940;BME280;4015;48.888;9.226;2023-05-19T10:47:00;159485.81;;;16.88;60.72
7940;BME280;4015;48.888;9.226;2023-05-19T10:49:25;159524.31;;;17.04;59.92
7940;BME280;4015;48.888;9.226;2023-05-19T10:51:54;159530.72;;;17.06;60.19
7940;BME280;4015;48.888;9.226;2023-05-19T10:54:40;159594.84;;;17.32;60.30
7940;BME280;4015;48.888;9.226;2023-05-19T10:57:07;159553.78;;;17.15;59.57
7940;BME280;4015;48.888;9.226;2023-05-19T10:59:35;159523.00;;;17.03;60.95
7940;BME280;4015;48.888;9.226;2023-05-19T11:02:05;159553.78;;;17.15;60.60
7940;BME280;4015;48.888;9.226;2023-05-19T11:04:45;159483.25;;;16.87;60.90
7940;BME280;4015;48.888;9.226;2023-05-19T11:07:19;159405.00;;;16.56;60.41
7940;BME280;4015;48.888;9.226;2023-05-19T11:09:49;159358.84;;;16.38;61.39
7940;BME280;4015;48.888;9.226;2023-05-19T11:12:19;159442.22;;;16.71;61.98
7940;BME280;4015;48.888;9.226;2023-05-19T11:14:46;159478.16;;;16.85;61.67
7940;BME280;4015;48.888;9.226;2023-05-19T11:17:15;159442.22;;;16.71;60.95
7940;BME280;4015;48.888;9.226;2023-05-19T11:19:56;159501.22;;;16.94;59.66
7940;BME280;4015;48.888;9.226;2023-05-19T11:22:26;159421.66;;;16.63;60.39
7940;BME280;4015;48.888;9.226;2023-05-19T11:24:53;159429.38;;;16.66;60.33
7940;BME280;4015;48.888;9.226;2023-05-19T11:27:29;159393.44;;;16.52;59.93
7940;BME280;4015;48.888;9.226;2023-05-19T11:29:58;159447.38;;;16.73;63.20
7940;BME280;4015;48.888;9.226;2023-05-19T11:32:31;159449.94;;;16.74;61.16
7940;BME280;4015;48.888;9.226;2023-05-19T11:35:00;159475.56;;;16.84;59.42
7940;BME280;4015;48.888;9.226;2023-05-19T11:37:27;159469.16;;;16.82;61.70
7940;BME280;4015;48.888;9.226;2023-05-19T11:39:56;159455.03;;;16.76;60.72
7940;BME280;4015;48.888;9.226;2023-05-19T11:42:22;159499.94;;;16.94;60.22
7940;BME280;4015;48.888;9.226;2023-05-19T11:44:47;159478.16;;;16.85;60.45
7940;BME280;4015;48.888;9.226;2023-05-19T11:47:13;159490.94;;;16.90;60.13
7940;BME280;4015;48.888;9.226;2023-05-19T11:49:43;159517.88;;;17.01;58.80
7940;BME280;4015;48.888;9.226;2023-05-19T11:52:09;159544.81;;;17.12;60.84
7940;BME280;4015;48.888;9.226;2023-05-19T11:54:34;159533.28;;;17.07;58.96
7940;BME280;4015;48.888;9.226;2023-05-19T11:57:07;159589.72;;;17.30;59.81
7940;BME280;4015;48.888;9.226;2023-05-19T11:59:35;159616.63;;;17.40;58.41
7940;BME280;4015;48.888;9.226;2023-05-19T12:02:01;159644.84;;;17.51;60.07
7940;BME280;4015;48.888;9.226;2023-05-19T12:04:30;159712.88;;;17.78;58.49
7940;BME280;4015;48.888;9.226;2023-05-19T12:06:56;159700.09;;;17.73;58.67
7940;BME280;4015;48.888;9.226;2023-05-19T12:09:22;159694.94;;;17.71;58.78
7940;BME280;4015;48.888;9.226;2023-05-19T12:11:50;159611.50;;;17.38;59.34
7940;BME280;4015;48.888;9.226;2023-05-19T12:14:15;159642.28;;;17.50;58.12
7940;BME280;4015;48.888;9.226;2023-05-19T12:16:41;159570.44;;;17.22;57.92
7940;BME280;4015;48.888;9.226;2023-05-19T12:19:07;159582.00;;;17.26;57.99
7940;BME280;4015;48.888;9.226;2023-05-19T12:21:34;159546.09;;;17.12;58.95
7940;BME280;4015;48.888;9.226;2023-05-19T12:23:59;159416.56;;;16.61;60.12
7940;BME280;4015;48.888;9.226;2023-05-19T12:26:26;159437.06;;;16.69;60.31
7940;BME280;4015;48.888;9.226;2023-05-19T12:28:51;159415.28;;;16.60;60.61
7940;BME280;4015;48.888;9.226;2023-05-19T12:31:17;159331.91;;;16.27;61.15
7940;BME280;4015;48.888;9.226;2023-05-19T12:33:44;159380.63;;;16.46;60.85
7940;BME280;4015;48.888;9.226;2023-05-19T12:36:12;159385.78;;;16.49;61.22
7940;BME280;4015;48.888;9.226;2023-05-19T12:38:38;159407.56;;;16.57;61.19
7940;BME280;4015;48.888;9.226;2023-05-19T12:41:04;159446.09;;;16.73;61.29
7940;BME280;4015;48.888;9.226;2023-05-19T12:43:30;159444.81;;;16.72;62.13
7940;BME280;4015;48.888;9.226;2023-05-19T12:45:57;159415.28;;;16.60;61.12
7940;BME280;4015;48.888;9.226;2023-05-19T12:48:22;159426.78;;;16.65;62.43
7940;BME280;4015;48.888;9.226;2023-05-19T12:50:50;159487.09;;;16.89;61.79
7940;BME280;4015;48.888;9.226;2023-05-19T12:53:16;159496.09;;;16.92;61.39
7940;BME280;4015;48.888;9.226;2023-05-19T12:55:44;159480.72;;;16.86;60.46
7940;BME280;4015;48.888;9.226;2023-05-19T12:58:14;159498.66;;;16.93;60.92
7940;BME280;4015;48.888;9.226;2023-05-19T13:00:44;159548.66;;;17.13;60.69
7940;BME280;4015;48.888;9.226;2023-05-19T13:03:18;159466.59;;;16.81;60.16
7940;BME280;4015;48.888;9.226;2023-05-19T13:05:46;159453.78;;;16.76;59.89
7940;BME280;4015;48.888;9.226;2023-05-19T13:08:13;159430.66;;;16.66;61.09
7940;BME280;4015;48.888;9.226;2023-05-19T13:10:41;159394.72;;;16.52;59.79
7940;BME280;4015;48.888;9.226;2023-05-19T13:13:08;159461.50;;;16.79;60.95
7940;BME280;4015;48.888;9.226;2023-05-19T13:15:36;159461.50;;;16.79;59.96
7940;BME280;4015;48.888;9.226;2023-05-19T13:18:03;159484.53;;;16.88;61.81
7940;BME280;4015;48.888;9.226;2023-05-19T13:20:30;159465.31;;;16.80;60.52
7940;BME280;4015;48.888;9.226;2023-05-19T13:22:55;159455.03;;;16.76;62.77
7940;BME280;4015;48.888;9.226;2023-05-19T13:25:21;159462.75;;;16.79;61.84
7940;BME280;4015;48.888;9.226;2023-05-19T13:27:47;159424.22;;;16.64;61.90
7940;BME280;4015;48.888;9.226;2023-05-19T13:30:13;159443.50;;;16.71;61.70
7940;BME280;4015;48.888;9.226;2023-05-19T13:32:40;159398.63;;;16.54;61.99